Time;durP1;ratioP1;P1;durP2;ratioP2;P2;SDS_P1;SDS_P2;PMS_P1;PMS_P2;Temp;Humidity;BMP_temperature;BMP_pressure;BME280_temperature;BME280_humidity;BME280_pressure;Samples;Min_cycle;Max_cycle;Signal;HPM_P1;HPM_P2
2022/07/02 00:00:14;;;;;;;4.87;2.50;;;;;;;12.20;100.00;101431.72;691037;28;1137;-44
2022/07/02 00:00:36;;;;;;;5.30;2.30;;;;;;;12.15;100.00;101428.22;690739;28;1037;-44
2022/07/02 00:00:57;;;;;;;4.30;2.22;;;;;;;12.16;100.00;101429.97;690003;28;828;-44
2022/07/02 00:01:20;;;;;;;5.30;2.40;;;;;;;12.19;100.00;101429.97;689625;28;1028;-44
2022/07/02 00:01:43;;;;;;;3.72;2.35;;;;;;;12.16;100.00;101431.75;689279;28;4368;-45
2022/07/02 00:02:05;;;;;;;4.88;2.40;;;;;;;12.15;100.00;101432.59;690361;28;1228;-44
2022/07/02 00:02:27;;;;;;;5.28;3.20;;;;;;;12.12;100.00;101433.47;690362;28;1055;-44
2022/07/02 00:02:51;;;;;;;5.18;2.53;;;;;;;12.08;100.00;101432.56;693312;28;1600;-45
2022/07/02 00:03:15;;;;;;;4.85;2.40;;;;;;;12.12;100.00;101436.09;693160;28;1030;-44
2022/07/02 00:03:42;;;;;;;5.03;2.60;;;;;;;12.18;100.00;101432.59;692308;28;1277;-44
2022/07/02 00:04:05;;;;;;;4.88;2.42;;;;;;;12.16;100.00;101435.22;692496;28;1278;-44
2022/07/02 00:04:32;;;;;;;4.13;2.40;;;;;;;12.20;100.00;101423.88;691966;28;4369;-44
2022/07/02 00:05:04;;;;;;;6.05;2.70;;;;;;;12.15;100.00;101432.59;690251;28;928;-44
2022/07/02 00:05:27;;;;;;;4.50;2.47;;;;;;;12.13;100.00;101434.31;690424;28;1011;-45
2022/07/02 00:05:56;;;;;;;4.90;3.08;;;;;;;12.12;100.00;101432.59;689623;28;801;-44
2022/07/02 00:06:19;;;;;;;4.38;2.40;;;;;;;12.08;100.00;101429.09;689788;28;926;-43
2022/07/02 00:06:41;;;;;;;4.15;2.35;;;;;;;12.07;100.00;101433.47;689717;28;1299;-44
2022/07/02 00:07:02;;;;;;;4.45;2.35;;;;;;;12.06;100.00;101434.34;690013;28;952;-45
2022/07/02 00:07:22;;;;;;;4.47;2.47;;;;;;;12.12;100.00;101437.84;690059;28;1037;-44
2022/07/02 00:07:43;;;;;;;3.50;2.47;;;;;;;12.15;100.00;101438.72;689916;28;4512;-45
2022/07/02 00:08:04;;;;;;;3.73;2.20;;;;;;;12.19;100.00;101435.22;687165;28;1088;-44
2022/07/02 00:08:26;;;;;;;5.65;2.47;;;;;;;12.13;100.00;101437.84;687718;28;954;-44
2022/07/02 00:08:48;;;;;;;4.35;2.20;;;;;;;12.07;100.00;101429.97;687677;28;1022;-45
2022/07/02 00:09:08;;;;;;;4.18;2.22;;;;;;;12.07;100.00;101437.81;685042;28;1404;-45
2022/07/02 00:09:30;;;;;;;4.53;2.70;;;;;;;12.05;100.00;101439.59;683837;28;923;-44
2022/07/02 00:09:53;;;;;;;5.00;2.50;;;;;;;12.01;100.00;101440.44;685529;28;1248;-43
2022/07/02 00:10:14;;;;;;;4.20;2.38;;;;;;;11.98;100.00;101435.22;686591;28;1017;-45
2022/07/02 00:10:34;;;;;;;3.95;2.53;;;;;;;11.99;100.00;101434.31;687087;28;4309;-44
2022/07/02 00:10:56;;;;;;;5.27;3.03;;;;;;;11.99;100.00;101436.94;688151;28;880;-44
2022/07/02 00:11:17;;;;;;;6.53;3.08;;;;;;;11.96;100.00;101431.69;690447;28;912;-44
2022/07/02 00:11:39;;;;;;;5.93;2.50;;;;;;;11.90;100.00;101436.00;691480;28;919;-44
2022/07/02 00:11:59;;;;;;;6.10;2.60;;;;;;;11.91;100.00;101442.16;689828;28;990;-44
2022/07/02 00:12:22;;;;;;;4.97;2.70;;;;;;;11.90;100.00;101430.78;689119;28;1686;-45
2022/07/02 00:12:43;;;;;;;4.47;2.50;;;;;;;11.89;100.00;101431.66;690296;28;943;-45
2022/07/02 00:13:05;;;;;;;3.58;2.28;;;;;;;11.87;100.00;101436.00;689270;28;1258;-44
2022/07/02 00:13:27;;;;;;;4.50;2.50;;;;;;;11.87;100.00;101437.78;689948;28;4290;-43
2022/07/02 00:13:49;;;;;;;4.00;2.50;;;;;;;11.85;100.00;101435.16;687797;28;1335;-44
2022/07/02 00:14:09;;;;;;;4.97;2.53;;;;;;;11.83;100.00;101439.50;686596;28;1580;-44
2022/07/02 00:14:33;;;;;;;4.20;2.47;;;;;;;11.84;100.00;101438.63;687762;28;928;-44
2022/07/02 00:14:55;;;;;;;4.72;2.50;;;;;;;11.82;100.00;101429.88;687524;28;1217;-44
2022/07/02 00:15:16;;;;;;;5.13;2.50;;;;;;;11.82;100.00;101437.72;687297;28;1146;-44
2022/07/02 00:15:37;;;;;;;4.13;2.40;;;;;;;11.85;100.00;101434.25;688629;28;1436;-44
2022/07/02 00:15:57;;;;;;;4.25;2.60;;;;;;;11.87;100.00;101438.63;688244;28;962;-44
2022/07/02 00:16:18;;;;;;;5.43;2.60;;;;;;;11.91;100.00;101436.91;687263;28;1190;-44
2022/07/02 00:16:38;;;;;;;4.80;2.67;;;;;;;11.96;100.00;101439.56;687551;28;4276;-45
2022/07/02 00:17:00;;;;;;;4.05;2.70;;;;;;;11.96;100.00;101432.56;690303;28;1441;-44
2022/07/02 00:17:21;;;;;;;4.10;2.40;;;;;;;12.00;100.00;101438.69;689644;28;1098;-44
2022/07/02 00:17:43;;;;;;;3.63;2.17;;;;;;;12.01;100.00;101436.06;690769;28;807;-44
2022/07/02 00:18:03;;;;;;;3.45;2.20;;;;;;;12.09;100.00;101441.34;689709;28;1165;-46
2022/07/02 00:18:23;;;;;;;4.50;2.33;;;;;;;12.10;100.00;101443.06;690553;28;904;-45
2022/07/02 00:18:44;;;;;;;4.90;2.45;;;;;;;12.13;100.00;101445.72;689448;28;1305;-46
2022/07/02 00:19:04;;;;;;;4.73;2.30;;;;;;;12.15;100.00;101440.47;689643;28;1107;-44
2022/07/02 00:19:25;;;;;;;4.63;2.50;;;;;;;12.14;100.00;101441.31;689385;28;4637;-44
2022/07/02 00:19:46;;;;;;;5.07;2.67;;;;;;;12.11;100.00;101434.34;689918;28;1226;-44
2022/07/02 00:20:07;;;;;;;4.73;2.47;;;;;;;12.12;100.00;101435.22;691560;28;3990;-44
2022/07/02 00:20:27;;;;;;;5.13;2.40;;;;;;;12.15;100.00;101443.09;693010;28;1202;-46
2022/07/02 00:20:48;;;;;;;4.65;2.40;;;;;;;12.14;100.00;101446.56;692851;28;1320;-44
2022/07/02 00:21:09;;;;;;;3.78;2.47;;;;;;;12.12;100.00;101443.94;692140;28;1206;-43
2022/07/02 00:21:29;;;;;;;4.60;2.35;;;;;;;12.08;100.00;101444.81;692794;28;793;-45
2022/07/02 00:21:50;;;;;;;4.90;2.50;;;;;;;12.02;100.00;101436.97;691856;28;1238;-43
2022/07/02 00:22:11;;;;;;;4.50;2.50;;;;;;;12.00;100.00;101443.94;689684;28;1395;-46
2022/07/02 00:22:32;;;;;;;4.95;2.50;;;;;;;12.06;100.00;101444.81;692217;28;4358;-44
2022/07/02 00:22:54;;;;;;;4.47;2.58;;;;;;;12.09;100.00;101447.44;691122;28;1198;-44
2022/07/02 00:23:15;;;;;;;5.07;2.65;;;;;;;12.04;100.00;101437.81;690022;28;1293;-45
2022/07/02 00:23:35;;;;;;;4.28;2.63;;;;;;;11.95;100.00;101437.78;690208;28;1236;-44
2022/07/02 00:23:55;;;;;;;4.87;2.43;;;;;;;11.96;100.00;101442.19;685646;28;1156;-44
2022/07/02 00:24:16;;;;;;;5.50;2.43;;;;;;;11.99;100.00;101444.78;685323;28;1474;-44
2022/07/02 00:24:40;;;;;;;5.05;2.50;;;;;;;11.95;100.00;101446.56;687486;28;1190;-44
2022/07/02 00:25:01;;;;;;;5.30;2.50;;;;;;;11.93;100.00;101438.66;690311;28;1111;-43
2022/07/02 00:25:23;;;;;;;5.77;2.67;;;;;;;11.90;100.00;101443.88;689867;28;1130;-44
2022/07/02 00:26:07;;;;;;;4.38;2.40;;;;;;;11.85;100.00;101440.38;690002;28;4239;-44
2022/07/02 00:26:32;;;;;;;3.90;2.35;;;;;;;11.80;100.00;101436.88;690085;28;1508;-43
2022/07/02 00:26:59;;;;;;;6.13;2.58;;;;;;;11.72;100.00;101441.22;689798;28;1134;-44
2022/07/02 00:27:19;;;;;;;5.28;2.60;;;;;;;11.70;100.00;101445.56;689517;28;900;-44
2022/07/02 00:27:42;;;;;;;4.32;2.40;;;;;;;11.75;100.00;101443.84;690554;28;1143;-43
2022/07/02 00:28:07;;;;;;;4.22;2.40;;;;;;;11.76;100.00;101437.72;688795;28;2035;-46
2022/07/02 00:28:30;;;;;;;4.53;2.50;;;;;;;11.78;100.00;101443.84;689536;28;4361;-44
2022/07/02 00:29:00;;;;;;;4.43;2.40;;;;;;;11.77;100.00;101442.09;690754;28;1174;-45
2022/07/02 00:29:34;;;;;;;4.93;2.50;;;;;;;11.75;100.00;101443.84;690103;28;1258;-44
2022/07/02 00:29:58;;;;;;;4.55;2.40;;;;;;;11.78;100.00;101443.84;688484;28;1739;-43
2022/07/02 00:30:19;;;;;;;4.47;2.40;;;;;;;11.79;100.00;101444.72;688388;28;1028;-46
2022/07/02 00:30:43;;;;;;;4.38;2.50;;;;;;;11.81;100.00;101443.88;684350;28;1977;-46
2022/07/02 00:31:04;;;;;;;4.28;2.50;;;;;;;11.81;100.00;101443.88;681428;28;2132;-45
2022/07/02 00:31:25;;;;;;;3.27;2.23;;;;;;;11.77;100.00;101444.72;684484;28;4606;-44
2022/07/02 00:31:47;;;;;;;4.63;2.53;;;;;;;11.75;100.00;101441.22;682234;28;1218;-44
2022/07/02 00:32:08;;;;;;;4.97;2.60;;;;;;;11.73;100.00;101438.59;684472;28;1268;-43
2022/07/02 00:32:32;;;;;;;4.30;2.53;;;;;;;11.72;100.00;101439.47;684796;28;1279;-44
2022/07/02 00:32:52;;;;;;;4.00;2.40;;;;;;;11.72;100.00;101444.69;686541;28;1166;-43
2022/07/02 00:33:15;;;;;;;4.53;2.53;;;;;;;11.61;100.00;101440.31;691452;28;1072;-45
2022/07/02 00:33:37;;;;;;;4.25;2.70;;;;;;;11.63;100.00;101446.41;690215;28;1066;-43
2022/07/02 00:33:58;;;;;;;4.68;2.50;;;;;;;11.69;100.00;101439.47;688325;28;1296;-43
2022/07/02 00:34:21;;;;;;;4.38;2.33;;;;;;;11.69;100.00;101444.69;689095;28;999;-43
2022/07/02 00:34:44;;;;;;;4.82;2.55;;;;;;;11.70;100.00;101440.31;689684;28;4269;-47
2022/07/02 00:35:13;;;;;;;5.30;2.50;;;;;;;11.71;100.00;101447.31;687903;28;1067;-43
2022/07/02 00:35:34;;;;;;;4.30;2.50;;;;;;;11.73;100.00;101445.59;688797;28;1027;-43
2022/07/02 00:35:56;;;;;;;4.13;2.60;;;;;;;11.73;100.00;101445.59;692427;28;1119;-44
2022/07/02 00:36:21;;;;;;;4.93;2.63;;;;;;;11.73;100.00;101448.22;692534;28;1218;-43
2022/07/02 00:36:43;;;;;;;4.82;2.42;;;;;;;11.73;100.00;101445.59;692599;28;1186;-45
2022/07/02 00:37:06;;;;;;;4.72;2.47;;;;;;;11.70;100.00;101445.56;689447;28;1153;-43
2022/07/02 00:37:27;;;;;;;4.10;2.40;;;;;;;11.71;100.00;101442.06;689346;28;4293;-43
2022/07/02 00:37:49;;;;;;;4.10;2.58;;;;;;;11.71;100.00;101445.59;690500;28;1217;-43
2022/07/02 00:38:10;;;;;;;5.22;2.45;;;;;;;11.67;100.00;101441.22;688444;28;940;-42
2022/07/02 00:38:30;;;;;;;6.00;2.53;;;;;;;11.65;100.00;101442.94;689761;28;1336;-43
2022/07/02 00:38:51;;;;;;;4.90;2.60;;;;;;;11.69;100.00;101446.44;688408;28;916;-44
2022/07/02 00:39:11;;;;;;;3.63;2.45;;;;;;;11.74;100.00;101447.31;689292;28;1137;-43
2022/07/02 00:39:31;;;;;;;4.57;2.50;;;;;;;11.81;100.00;101443.88;690968;28;1209;-44
2022/07/02 00:39:53;;;;;;;4.45;2.63;;;;;;;11.79;100.00;101440.34;689797;28;954;-42
2022/07/02 00:40:15;;;;;;;3.72;2.45;;;;;;;11.80;100.00;101442.13;690149;28;1514;-43
2022/07/02 00:40:36;;;;;;;5.72;2.60;;;;;;;11.80;100.00;101444.72;689311;28;4438;-44
2022/07/02 00:40:59;;;;;;;4.95;2.53;;;;;;;11.79;100.00;101437.72;690509;28;1188;-46
2022/07/02 00:41:20;;;;;;;4.97;2.70;;;;;;;11.79;100.00;101442.09;689353;28;959;-45
2022/07/02 00:41:43;;;;;;;5.35;2.40;;;;;;;11.76;100.00;101443.84;689885;28;1115;-44
2022/07/02 00:42:05;;;;;;;4.47;2.50;;;;;;;11.70;100.00;101443.84;690047;28;911;-43
2022/07/02 00:42:26;;;;;;;4.93;2.70;;;;;;;11.64;100.00;101442.94;690166;28;4779;-42
2022/07/02 00:42:48;;;;;;;5.10;2.60;;;;;;;11.62;100.00;101442.94;690844;28;1066;-43
2022/07/02 00:43:09;;;;;;;5.32;2.78;;;;;;;11.60;100.00;101439.41;690176;28;1123;-42
2022/07/02 00:43:29;;;;;;;5.40;2.60;;;;;;;11.62;100.00;101447.31;692602;28;4749;-43
2022/07/02 00:43:50;;;;;;;5.57;2.70;;;;;;;11.62;100.00;101442.06;693022;28;1106;-43
2022/07/02 00:44:12;;;;;;;6.07;2.90;;;;;;;11.60;100.00;101442.03;691654;28;986;-43
2022/07/02 00:44:33;;;;;;;4.82;2.75;;;;;;;11.58;100.00;101442.03;691635;28;1118;-42
2022/07/02 00:44:57;;;;;;;4.57;2.58;;;;;;;11.58;100.00;101442.03;693018;28;1118;-44
2022/07/02 00:45:20;;;;;;;5.60;2.83;;;;;;;11.57;100.00;101444.66;691451;28;943;-44
2022/07/02 00:45:40;;;;;;;5.18;2.90;;;;;;;11.55;100.00;101442.03;692918;28;1127;-43
2022/07/02 00:46:01;;;;;;;5.85;2.70;;;;;;;11.57;100.00;101442.03;691594;28;940;-43
2022/07/02 00:46:23;;;;;;;6.73;2.70;;;;;;;11.58;100.00;101447.28;693259;28;1457;-45
2022/07/02 00:46:44;;;;;;;4.78;2.50;;;;;;;11.63;100.00;101442.06;692004;28;4433;-43
2022/07/02 00:47:08;;;;;;;4.53;2.53;;;;;;;11.66;100.00;101449.03;691522;28;1170;-43
2022/07/02 00:47:30;;;;;;;3.95;2.33;;;;;;;11.63;100.00;101444.69;689885;28;1082;-43
2022/07/02 00:47:51;;;;;;;4.82;2.30;;;;;;;11.62;100.00;101437.69;690360;28;1325;-43
2022/07/02 00:48:17;;;;;;;4.82;2.50;;;;;;;11.61;100.00;101445.56;687339;28;1184;-44
2022/07/02 00:48:38;;;;;;;4.95;2.95;;;;;;;11.58;100.00;101446.41;686541;28;1146;-45
2022/07/02 00:49:00;;;;;;;4.18;2.83;;;;;;;11.58;100.00;101443.78;687730;28;1098;-43
2022/07/02 00:49:21;;;;;;;3.75;2.58;;;;;;;11.59;100.00;101443.78;687010;28;1332;-46
2022/07/02 00:49:41;;;;;;;3.97;2.60;;;;;;;11.58;100.00;101444.66;688018;28;4464;-44
2022/07/02 00:50:06;;;;;;;4.00;2.40;;;;;;;11.58;100.00;101451.66;690616;28;1203;-46
2022/07/02 00:50:26;;;;;;;4.78;2.33;;;;;;;11.53;100.00;101443.78;690015;28;1019;-46
2022/07/02 00:50:47;;;;;;;5.18;2.63;;;;;;;11.54;100.00;101444.66;690163;28;1918;-43
2022/07/02 00:51:07;;;;;;;4.40;2.60;;;;;;;11.55;100.00;101442.03;690015;28;1613;-43
2022/07/02 00:51:28;;;;;;;4.13;2.50;;;;;;;11.55;100.00;101436.78;689614;28;1060;-44
2022/07/02 00:51:48;;;;;;;4.22;2.72;;;;;;;11.56;100.00;101438.56;689389;28;983;-46
2022/07/02 00:52:09;;;;;;;4.35;2.70;;;;;;;11.58;100.00;101444.66;690059;28;920;-43
2022/07/02 00:52:29;;;;;;;4.40;2.40;;;;;;;11.58;100.00;101447.28;686687;28;4398;-43
2022/07/02 00:52:50;;;;;;;4.78;2.50;;;;;;;11.56;100.00;101441.16;687212;28;1313;-43
2022/07/02 00:53:10;;;;;;;5.30;2.80;;;;;;;11.59;100.00;101443.78;689364;28;1093;-44
2022/07/02 00:53:31;;;;;;;5.07;2.53;;;;;;;11.66;100.00;101443.78;689464;28;1107;-45
2022/07/02 00:53:51;;;;;;;4.60;2.53;;;;;;;11.68;100.00;101447.31;690049;28;1098;-44
2022/07/02 00:54:11;;;;;;;5.80;2.60;;;;;;;11.71;100.00;101447.31;689879;28;1497;-46
2022/07/02 00:54:32;;;;;;;4.87;2.37;;;;;;;11.75;100.00;101449.06;689989;28;896;-45
2022/07/02 00:54:53;;;;;;;5.40;2.42;;;;;;;11.74;100.00;101440.34;689697;28;847;-44
2022/07/02 00:55:13;;;;;;;4.33;2.47;;;;;;;11.78;100.00;101443.84;692372;28;1121;-44
2022/07/02 00:55:34;;;;;;;3.88;2.53;;;;;;;11.81;100.00;101446.50;692132;28;4612;-47
2022/07/02 00:55:56;;;;;;;3.55;2.42;;;;;;;11.77;100.00;101444.72;692239;28;1507;-45
2022/07/02 00:56:16;;;;;;;4.00;2.45;;;;;;;11.75;100.00;101451.69;688132;28;941;-44
2022/07/02 00:56:37;;;;;;;4.40;2.40;;;;;;;11.71;100.00;101442.06;691358;28;959;-44
2022/07/02 00:56:57;;;;;;;3.78;2.30;;;;;;;11.70;100.00;101440.31;686969;28;1455;-45
2022/07/02 00:57:18;;;;;;;3.73;2.30;;;;;;;11.67;100.00;101445.56;686683;28;959;-44
2022/07/02 00:57:39;;;;;;;5.00;2.40;;;;;;;11.64;100.00;101435.06;687369;28;932;-44
2022/07/02 00:58:01;;;;;;;3.65;2.30;;;;;;;11.60;100.00;101436.78;687384;28;861;-43
2022/07/02 00:58:22;;;;;;;3.67;2.55;;;;;;;11.57;100.00;101440.31;686731;28;1341;-45
2022/07/02 00:58:42;;;;;;;3.78;2.50;;;;;;;11.55;100.00;101442.03;686895;28;5359;-44
2022/07/02 00:59:06;;;;;;;4.68;2.70;;;;;;;11.54;100.00;101439.41;690184;28;975;-43
2022/07/02 00:59:27;;;;;;;4.85;2.55;;;;;;;11.62;100.00;101436.84;689716;28;1087;-44
2022/07/02 00:59:47;;;;;;;4.50;2.50;;;;;;;11.61;100.00;101437.69;687420;28;1052;-44
2022/07/02 01:00:08;;;;;;;4.28;2.58;;;;;;;11.57;100.00;101444.66;684965;28;1251;-44
2022/07/02 01:00:29;;;;;;;4.65;2.53;;;;;;;11.56;100.00;101430.69;687545;28;1364;-43
2022/07/02 01:00:49;;;;;;;5.03;2.40;;;;;;;11.59;100.00;101437.69;687563;28;840;-43
2022/07/02 01:01:09;;;;;;;4.05;2.40;;;;;;;11.55;100.00;101439.41;685330;28;941;-44
2022/07/02 01:01:30;;;;;;;4.50;2.60;;;;;;;11.54;100.00;101435.03;687307;28;4335;-45
2022/07/02 01:01:51;;;;;;;4.68;2.50;;;;;;;11.51;100.00;101435.03;688175;28;782;-45
2022/07/02 01:02:14;;;;;;;4.65;2.50;;;;;;;11.42;100.00;101429.75;689765;28;1311;-44
2022/07/02 01:02:36;;;;;;;4.55;2.60;;;;;;;11.38;100.00;101435.84;689909;28;899;-44
2022/07/02 01:02:59;;;;;;;4.85;2.70;;;;;;;11.30;100.00;101432.31;689935;28;812;-43
2022/07/02 01:03:21;;;;;;;4.32;2.83;;;;;;;11.22;100.00;101430.53;689029;28;1269;-46
2022/07/02 01:03:44;;;;;;;4.60;3.08;;;;;;;11.20;100.00;101432.28;689556;28;997;-44
2022/07/02 01:04:06;;;;;;;5.97;3.03;;;;;;;11.23;100.00;101434.91;689251;28;1022;-43
2022/07/02 01:04:29;;;;;;;4.80;2.78;;;;;;;11.25;100.00;101427.06;690009;28;4551;-46
2022/07/02 01:04:50;;;;;;;4.93;2.70;;;;;;;11.24;100.00;101426.22;689652;28;1212;-44
2022/07/02 01:05:15;;;;;;;5.10;2.60;;;;;;;11.26;100.00;101428.81;689482;28;940;-44
2022/07/02 01:05:36;;;;;;;5.05;3.15;;;;;;;11.25;100.00;101429.69;691001;28;1113;-44
2022/07/02 01:05:57;;;;;;;4.47;2.80;;;;;;;11.30;100.00;101429.69;690501;28;1441;-43
2022/07/02 01:06:19;;;;;;;4.65;3.00;;;;;;;11.35;100.00;101427.97;689586;28;981;-44
2022/07/02 01:06:41;;;;;;;4.78;2.60;;;;;;;11.43;100.00;101430.66;688949;28;1029;-43
2022/07/02 01:07:07;;;;;;;5.65;2.70;;;;;;;11.42;100.00;101432.38;689865;28;1017;-44
2022/07/02 01:07:29;;;;;;;5.07;2.40;;;;;;;11.38;100.00;101428.88;689407;28;4356;-44
2022/07/02 01:10:44;;;;;;;4.07;2.78;;;;;;;11.28;100.00;101427.06;689394;28;4269;-44
2022/07/02 01:11:04;;;;;;;5.75;3.13;;;;;;;11.30;100.00;101429.69;689975;28;1138;-45
2022/07/02 01:11:25;;;;;;;4.90;2.83;;;;;;;11.34;100.00;101429.75;689963;28;988;-44
2022/07/02 01:11:47;;;;;;;4.28;2.72;;;;;;;11.39;100.00;101434.97;690358;28;1253;-43
2022/07/02 01:12:09;;;;;;;4.35;2.70;;;;;;;11.38;100.00;101428.00;690308;28;967;-44
2022/07/02 01:12:30;;;;;;;4.13;2.70;;;;;;;11.38;100.00;101428.88;690382;28;1794;-44
2022/07/02 01:12:51;;;;;;;5.00;3.00;;;;;;;11.37;100.00;101434.97;690633;28;1083;-44
2022/07/02 01:13:12;;;;;;;5.05;2.72;;;;;;;11.38;100.00;101433.22;688733;28;934;-43
2022/07/02 01:13:33;;;;;;;5.00;2.63;;;;;;;11.38;100.00;101428.88;689466;28;4316;-45
2022/07/02 01:13:57;;;;;;;4.65;2.88;;;;;;;11.38;100.00;101434.13;689596;28;1246;-45
2022/07/02 01:14:18;;;;;;;4.55;2.80;;;;;;;11.34;100.00;101436.69;689810;28;1228;-44
2022/07/02 01:14:39;;;;;;;5.55;2.70;;;;;;;11.31;100.00;101432.34;687643;28;1107;-44
2022/07/02 01:15:00;;;;;;;5.10;2.78;;;;;;;11.29;100.00;101433.19;689650;28;889;-43
2022/07/02 01:15:22;;;;;;;4.53;2.70;;;;;;;11.29;100.00;101430.59;690844;28;1033;-45
2022/07/02 01:15:43;;;;;;;5.07;2.88;;;;;;;11.32;100.00;101438.44;689847;28;1252;-43
2022/07/02 01:16:03;;;;;;;5.90;2.83;;;;;;;11.31;100.00;101432.34;689422;28;3779;-44
2022/07/02 01:16:24;;;;;;;4.20;2.88;;;;;;;11.33;100.00;101433.22;689887;28;923;-43
2022/07/02 01:16:44;;;;;;;5.67;3.00;;;;;;;11.34;100.00;101432.34;690554;28;4387;-44
2022/07/02 01:17:04;;;;;;;6.47;3.10;;;;;;;11.37;100.00;101431.50;689533;28;1378;-44
2022/07/02 01:17:25;;;;;;;5.30;3.10;;;;;;;11.36;100.00;101429.75;689673;28;1085;-43
2022/07/02 01:17:46;;;;;;;5.10;3.00;;;;;;;11.38;100.00;101435.84;690106;28;950;-44
2022/07/02 01:18:07;;;;;;;4.70;2.95;;;;;;;11.32;100.00;101434.06;690959;28;962;-44
2022/07/02 01:18:27;;;;;;;4.78;3.15;;;;;;;11.31;100.00;101431.44;690189;28;1362;-44
2022/07/02 01:18:47;;;;;;;5.37;3.10;;;;;;;11.31;100.00;101432.34;687442;28;852;-45
2022/07/02 01:19:09;;;;;;;5.30;3.10;;;;;;;11.24;100.00;101427.94;686154;28;987;-44
2022/07/02 01:19:30;;;;;;;5.80;3.00;;;;;;;11.19;100.00;101433.16;686150;28;4364;-45
2022/07/02 01:19:51;;;;;;;5.90;3.10;;;;;;;11.15;100.00;101436.63;687818;28;886;-43
2022/07/02 01:20:11;;;;;;;5.22;3.30;;;;;;;11.13;100.00;101429.63;686638;28;1074;-44
2022/07/02 01:20:32;;;;;;;5.28;3.30;;;;;;;11.10;100.00;101429.63;687820;28;900;-44
2022/07/02 01:20:52;;;;;;;5.93;3.40;;;;;;;11.10;100.00;101433.09;689732;28;1085;-44
2022/07/02 01:21:13;;;;;;;5.38;3.40;;;;;;;11.11;100.00;101431.38;690024;28;1175;-44
2022/07/02 01:21:33;;;;;;;5.90;3.10;;;;;;;11.13;100.00;101427.91;690331;28;1461;-44
2022/07/02 01:22:14;;;;;;;5.77;3.20;;;;;;;11.21;100.00;101426.16;690248;28;1296;-45
2022/07/02 01:22:39;;;;;;;4.80;3.00;;;;;;;11.24;100.00;101426.22;688651;28;4490;-43
2022/07/02 01:22:59;;;;;;;5.32;3.13;;;;;;;11.23;100.00;101424.44;686631;28;1232;-44
2022/07/02 01:23:20;;;;;;;5.27;3.10;;;;;;;11.26;100.00;101423.59;686718;28;967;-43
2022/07/02 01:23:40;;;;;;;4.53;3.00;;;;;;;11.27;100.00;101432.31;684066;28;1232;-43
2022/07/02 01:24:01;;;;;;;5.50;3.20;;;;;;;11.24;100.00;101426.22;685065;28;1048;-45
2022/07/02 01:24:25;;;;;;;4.78;3.00;;;;;;;11.23;100.00;101421.84;685849;28;976;-44
2022/07/02 01:24:47;;;;;;;4.97;3.10;;;;;;;11.23;100.00;101427.06;685311;28;1295;-44
2022/07/02 01:25:08;;;;;;;4.15;2.90;;;;;;;11.24;100.00;101426.22;687566;28;1294;-44
2022/07/02 01:25:29;;;;;;;5.47;3.00;;;;;;;11.26;100.00;101423.59;687224;28;4294;-45
2022/07/02 01:25:50;;;;;;;5.50;3.08;;;;;;;11.27;100.00;101424.47;689973;28;1079;-45
2022/07/02 01:26:10;;;;;;;5.03;3.40;;;;;;;11.27;100.00;101422.72;689322;28;1265;-43
2022/07/02 01:26:31;;;;;;;4.85;3.28;;;;;;;11.21;100.00;101431.41;690773;28;915;-44
2022/07/02 01:26:51;;;;;;;5.17;3.20;;;;;;;11.15;100.00;101430.53;690535;28;1145;-44
2022/07/02 01:27:12;;;;;;;4.80;3.20;;;;;;;11.10;100.00;101432.22;688383;28;1312;-43
2022/07/02 01:27:33;;;;;;;4.75;3.15;;;;;;;11.07;100.00;101417.38;688930;28;1064;-45
2022/07/02 01:27:54;;;;;;;5.18;3.10;;;;;;;11.03;100.00;101424.34;687024;28;1382;-45
2022/07/02 01:28:15;;;;;;;5.30;3.17;;;;;;;10.99;100.00;101429.53;687258;28;884;-44
2022/07/02 01:28:35;;;;;;;5.60;3.10;;;;;;;10.96;100.00;101427.78;686655;28;4279;-44
2022/07/02 01:28:55;;;;;;;7.07;3.40;;;;;;;10.96;100.00;101424.31;687309;28;1110;-44
2022/07/02 01:29:15;;;;;;;5.90;3.10;;;;;;;10.96;100.00;101429.53;689695;28;1073;-44
2022/07/02 01:29:36;;;;;;;6.17;2.90;;;;;;;11.01;100.00;101426.09;689807;28;1018;-45
2022/07/02 01:29:57;;;;;;;5.40;2.92;;;;;;;11.05;100.00;101432.22;689993;28;1156;-44
2022/07/02 01:30:19;;;;;;;4.97;2.90;;;;;;;11.04;100.00;101433.94;689639;28;1149;-45
2022/07/02 01:30:39;;;;;;;6.63;3.00;;;;;;;11.00;100.00;101419.09;689573;28;1930;-45
2022/07/02 01:31:00;;;;;;;5.43;3.10;;;;;;;11.00;100.00;101423.47;690700;28;1063;-44
2022/07/02 01:31:23;;;;;;;5.07;2.90;;;;;;;11.01;100.00;101427.84;688570;28;1225;-44
2022/07/02 01:31:43;;;;;;;5.20;3.17;;;;;;;11.03;100.00;101426.09;689966;28;4266;-43
2022/07/02 01:32:04;;;;;;;5.20;3.00;;;;;;;11.02;100.00;101426.94;689714;28;1443;-44
2022/07/02 01:32:24;;;;;;;4.95;3.10;;;;;;;11.03;100.00;101428.69;689841;28;1499;-43
2022/07/02 01:32:45;;;;;;;4.68;3.10;;;;;;;11.05;100.00;101424.38;690551;28;1153;-43
2022/07/02 01:33:05;;;;;;;5.00;3.20;;;;;;;11.11;100.00;101418.28;689444;28;1070;-43
2022/07/02 01:33:25;;;;;;;4.30;2.77;;;;;;;11.13;100.00;101420.06;690034;28;757;-45
2022/07/02 01:33:46;;;;;;;4.10;2.73;;;;;;;11.10;100.00;101420.00;690259;28;1053;-44
2022/07/02 01:34:06;;;;;;;6.17;3.00;;;;;;;11.12;100.00;101426.16;689659;28;959;-43
2022/07/02 01:34:28;;;;;;;5.25;3.20;;;;;;;11.14;100.00;101423.53;688819;28;4378;-43
2022/07/02 01:34:51;;;;;;;4.70;3.20;;;;;;;11.20;100.00;101424.44;689767;28;884;-43
2022/07/02 01:35:11;;;;;;;5.15;3.17;;;;;;;11.24;100.00;101423.59;689291;28;1359;-43
2022/07/02 01:35:31;;;;;;;4.88;2.88;;;;;;;11.28;100.00;101419.22;689944;28;1083;-44
2022/07/02 01:35:52;;;;;;;5.00;2.97;;;;;;;11.27;100.00;101425.34;690556;28;836;-43
2022/07/02 01:36:12;;;;;;;4.78;3.05;;;;;;;11.25;100.00;101420.06;688260;28;1059;-44
2022/07/02 01:36:33;;;;;;;5.53;3.17;;;;;;;11.24;100.00;101420.97;688934;28;1318;-43
2022/07/02 01:36:53;;;;;;;4.97;3.20;;;;;;;11.27;100.00;101419.22;689710;28;1035;-43
2022/07/02 01:37:15;;;;;;;5.03;2.95;;;;;;;11.31;100.00;101420.97;689088;28;1057;-46
2022/07/02 01:37:39;;;;;;;5.18;2.97;;;;;;;11.28;100.00;101418.34;689140;28;4259;-43
2022/07/02 01:38:00;;;;;;;5.10;3.10;;;;;;;11.26;100.00;101418.34;689700;28;1321;-43
2022/07/02 01:38:20;;;;;;;4.63;3.22;;;;;;;11.24;100.00;101420.06;690344;28;1293;-43
2022/07/02 01:38:40;;;;;;;5.70;3.30;;;;;;;11.27;100.00;101422.72;692672;28;1029;-43
2022/07/02 01:39:01;;;;;;;5.53;3.10;;;;;;;11.33;100.00;101416.66;692425;28;1018;-43
2022/07/02 01:39:24;;;;;;;5.07;2.97;;;;;;;11.36;100.00;101419.28;692991;28;1090;-43
2022/07/02 01:39:46;;;;;;;5.05;2.92;;;;;;;11.36;100.00;101419.28;692288;28;1165;-44
2022/07/02 01:40:07;;;;;;;5.55;3.20;;;;;;;11.38;100.00;101417.50;692641;28;1115;-43
2022/07/02 01:40:28;;;;;;;4.72;2.95;;;;;;;11.38;100.00;101417.50;690624;28;4263;-43
2022/07/02 01:40:48;;;;;;;3.77;2.70;;;;;;;11.38;100.00;101422.75;691123;28;1168;-44
2022/07/02 01:41:47;;;;;;;6.22;3.03;;;;;;;11.36;100.00;101421.88;691322;28;1099;-43
2022/07/02 01:42:09;;;;;;;5.03;3.10;;;;;;;11.33;100.00;101421.88;691080;28;1248;-44
2022/07/02 01:42:30;;;;;;;4.80;3.10;;;;;;;11.34;100.00;101426.22;693399;28;4936;-43
2022/07/02 01:42:50;;;;;;;4.68;2.92;;;;;;;11.27;100.00;101420.13;692661;28;1103;-45
2022/07/02 01:43:11;;;;;;;5.85;3.15;;;;;;;11.16;100.00;101419.16;692362;28;1236;-44
2022/07/02 01:43:32;;;;;;;5.55;3.17;;;;;;;11.10;100.00;101417.41;691756;28;5246;-42
2022/07/02 01:43:52;;;;;;;5.15;3.00;;;;;;;11.06;100.00;101419.13;690266;28;1257;-46
2022/07/02 01:44:12;;;;;;;5.27;3.10;;;;;;;11.07;100.00;101427.84;691649;28;1119;-44
2022/07/02 01:44:34;;;;;;;6.50;3.10;;;;;;;11.10;100.00;101417.41;690441;28;1150;-43
2022/07/02 01:44:54;;;;;;;6.18;3.30;;;;;;;11.08;100.00;101420.00;690174;28;1056;-43
2022/07/02 01:45:15;;;;;;;6.53;3.30;;;;;;;11.10;100.00;101422.63;690390;28;1408;-49
2022/07/02 01:45:35;;;;;;;5.80;3.03;;;;;;;11.13;100.00;101427.00;687377;28;1337;-44
2022/07/02 01:45:55;;;;;;;4.57;2.90;;;;;;;11.12;100.00;101423.53;687653;28;1294;-45